sensor_id;sensor_type;location;lat;lon;timestamp;P1;durP1;ratioP1;P2;durP2;ratioP2
8592;SDS011;4334;49.982;8.398;2023-05-10T00:00:42;0.50;;;0.40;;
8592;SDS011;4334;49.982;8.398;2023-05-10T00:03:09;0.30;;;0.30;;
8592;SDS011;4334;49.982;8.398;2023-05-10T00:05:36;0.50;;;0.50;;
8592;SDS011;4334;49.982;8.398;2023-05-10T00:08:03;0.83;;;0.73;;
8592;SDS011;4334;49.982;8.398;2023-05-10T00:10:32;1.90;;;0.50;;
8592;SDS011;4334;49.982;8.398;2023-05-10T00:12:58;0.27;;;0.27;;
8592;SDS011;4334;49.982;8.398;2023-05-10T00:15:25;0.33;;;0.33;;
8592;SDS011;4334;49.982;8.398;2023-05-10T00:17:52;0.30;;;0.30;;
8592;SDS011;4334;49.982;8.398;2023-05-10T00:20:19;0.73;;;0.67;;
8592;SDS011;4334;49.982;8.398;2023-05-10T00:22:46;0.63;;;0.60;;
8592;SDS011;4334;49.982;8.398;2023-05-10T00:25:13;1.30;;;0.80;;
8592;SDS011;4334;49.982;8.398;2023-05-10T00:27:41;1.20;;;1.10;;
8592;SDS011;4334;49.982;8.398;2023-05-10T00:30:08;1.80;;;1.43;;
8592;SDS011;4334;49.982;8.398;2023-05-10T00:32:36;1.17;;;0.90;;
8592;SDS011;4334;49.982;8.398;2023-05-10T00:35:03;1.83;;;1.30;;
8592;SDS011;4334;49.982;8.398;2023-05-10T00:37:30;1.00;;;0.77;;
8592;SDS011;4334;49.982;8.398;2023-05-10T00:39:57;1.23;;;0.93;;
8592;SDS011;4334;49.982;8.398;2023-05-10T00:42:24;4.33;;;1.53;;
8592;SDS011;4334;49.982;8.398;2023-05-10T00:44:52;1.97;;;0.97;;
8592;SDS011;4334;49.982;8.398;2023-05-10T00:47:20;1.47;;;1.30;;
8592;SDS011;4334;49.982;8.398;2023-05-10T00:49:47;1.73;;;0.83;;
8592;SDS011;4334;49.982;8.398;2023-05-10T00:52:14;0.83;;;0.80;;
8592;SDS011;4334;49.982;8.398;2023-05-10T00:54:41;1.40;;;1.10;;
8592;SDS011;4334;49.982;8.398;2023-05-10T00:57:08;2.23;;;1.03;;
8592;SDS011;4334;49.982;8.398;2023-05-10T00:59:35;1.80;;;1.20;;
8592;SDS011;4334;49.982;8.398;2023-05-10T01:02:04;1.73;;;1.20;;
8592;SDS011;4334;49.982;8.398;2023-05-10T01:04:31;1.90;;;1.20;;
8592;SDS011;4334;49.982;8.398;2023-05-10T01:06:58;0.70;;;0.70;;
8592;SDS011;4334;49.982;8.398;2023-05-10T01:09:26;0.67;;;0.60;;
8592;SDS011;4334;49.982;8.398;2023-05-10T01:11:53;0.60;;;0.60;;
8592;SDS011;4334;49.982;8.398;2023-05-10T01:14:20;0.50;;;0.50;;
8592;SDS011;4334;49.982;8.398;2023-05-10T01:16:49;0.40;;;0.40;;
8592;SDS011;4334;49.982;8.398;2023-05-10T01:19:18;0.30;;;0.30;;
8592;SDS011;4334;49.982;8.398;2023-05-10T01:21:49;0.47;;;0.47;;
8592;SDS011;4334;49.982;8.398;2023-05-10T01:27:34;0.23;;;0.23;;
8592;SDS011;4334;49.982;8.398;2023-05-10T01:30:28;0.43;;;0.43;;
8592;SDS011;4334;49.982;8.398;2023-05-10T01:33:26;0.40;;;0.40;;
8592;SDS011;4334;49.982;8.398;2023-05-10T01:36:01;0.50;;;0.50;;
8592;SDS011;4334;49.982;8.398;2023-05-10T01:38:33;0.17;;;0.17;;
8592;SDS011;4334;49.982;8.398;2023-05-10T01:41:09;0.53;;;0.53;;
8592;SDS011;4334;49.982;8.398;2023-05-10T01:43:43;0.63;;;0.63;;
8592;SDS011;4334;49.982;8.398;2023-05-10T01:46:31;0.57;;;0.57;;
8592;SDS011;4334;49.982;8.398;2023-05-10T01:49:03;0.50;;;0.50;;
8592;SDS011;4334;49.982;8.398;2023-05-10T01:51:36;1.07;;;0.50;;
8592;SDS011;4334;49.982;8.398;2023-05-10T01:54:07;0.70;;;0.43;;
8592;SDS011;4334;49.982;8.398;2023-05-10T01:56:35;0.40;;;0.40;;
8592;SDS011;4334;49.982;8.398;2023-05-10T01:59:06;0.73;;;0.73;;
8592;SDS011;4334;49.982;8.398;2023-05-10T02:01:37;0.53;;;0.53;;
8592;SDS011;4334;49.982;8.398;2023-05-10T02:04:06;0.70;;;0.70;;
8592;SDS011;4334;49.982;8.398;2023-05-10T02:06:34;0.67;;;0.67;;
8592;SDS011;4334;49.982;8.398;2023-05-10T02:09:03;0.70;;;0.70;;
8592;SDS011;4334;49.982;8.398;2023-05-10T02:11:33;0.70;;;0.70;;
8592;SDS011;4334;49.982;8.398;2023-05-10T02:13:59;0.50;;;0.50;;
8592;SDS011;4334;49.982;8.398;2023-05-10T02:16:27;2.10;;;1.50;;
8592;SDS011;4334;49.982;8.398;2023-05-10T02:18:55;1.10;;;1.00;;
8592;SDS011;4334;49.982;8.398;2023-05-10T02:21:26;1.37;;;0.90;;
8592;SDS011;4334;49.982;8.398;2023-05-10T02:23:54;1.97;;;1.47;;
8592;SDS011;4334;49.982;8.398;2023-05-10T02:26:21;2.20;;;1.47;;
8592;SDS011;4334;49.982;8.398;2023-05-10T02:28:51;8.00;;;2.13;;
8592;SDS011;4334;49.982;8.398;2023-05-10T02:31:19;2.47;;;1.70;;
8592;SDS011;4334;49.982;8.398;2023-05-10T02:33:47;2.17;;;1.63;;
8592;SDS011;4334;49.982;8.398;2023-05-10T02:36:15;4.37;;;2.90;;
8592;SDS011;4334;49.982;8.398;2023-05-10T02:38:43;5.57;;;1.90;;
8592;SDS011;4334;49.982;8.398;2023-05-10T02:41:11;2.73;;;1.73;;
8592;SDS011;4334;49.982;8.398;2023-05-10T02:43:39;4.27;;;2.57;;
8592;SDS011;4334;49.982;8.398;2023-05-10T02:46:06;8.53;;;2.20;;
8592;SDS011;4334;49.982;8.398;2023-05-10T02:48:33;12.57;;;4.07;;
8592;SDS011;4334;49.982;8.398;2023-05-10T02:51:03;10.60;;;4.43;;
8592;SDS011;4334;49.982;8.398;2023-05-10T02:53:33;31.37;;;8.83;;
8592;SDS011;4334;49.982;8.398;2023-05-10T02:56:06;15.97;;;4.53;;
8592;SDS011;4334;49.982;8.398;2023-05-10T02:58:39;22.70;;;7.30;;
8592;SDS011;4334;49.982;8.398;2023-05-10T03:01:06;18.63;;;6.30;;
8592;SDS011;4334;49.982;8.398;2023-05-10T03:03:33;10.97;;;3.97;;
8592;SDS011;4334;49.982;8.398;2023-05-10T03:06:00;16.07;;;5.50;;
8592;SDS011;4334;49.982;8.398;2023-05-10T03:08:27;16.47;;;4.87;;
8592;SDS011;4334;49.982;8.398;2023-05-10T03:10:57;3.67;;;2.10;;
8592;SDS011;4334;49.982;8.398;2023-05-10T03:13:35;1.67;;;1.10;;
8592;SDS011;4334;49.982;8.398;2023-05-10T03:16:07;1.27;;;1.17;;
8592;SDS011;4334;49.982;8.398;2023-05-10T03:18:40;1.60;;;1.30;;
8592;SDS011;4334;49.982;8.398;2023-05-10T03:21:10;0.97;;;0.90;;
8592;SDS011;4334;49.982;8.398;2023-05-10T03:23:41;1.20;;;1.10;;
8592;SDS011;4334;49.982;8.398;2023-05-10T03:26:09;1.20;;;1.10;;
8592;SDS011;4334;49.982;8.398;2023-05-10T03:28:41;1.00;;;0.90;;
8592;SDS011;4334;49.982;8.398;2023-05-10T03:31:08;0.90;;;0.87;;
8592;SDS011;4334;49.982;8.398;2023-05-10T03:33:35;2.63;;;1.00;;
8592;SDS011;4334;49.982;8.398;2023-05-10T03:36:02;1.33;;;1.27;;
8592;SDS011;4334;49.982;8.398;2023-05-10T03:38:30;0.90;;;0.80;;
8592;SDS011;4334;49.982;8.398;2023-05-10T03:40:57;1.27;;;0.90;;
8592;SDS011;4334;49.982;8.398;2023-05-10T03:43:23;1.20;;;1.10;;
8592;SDS011;4334;49.982;8.398;2023-05-10T03:45:52;1.30;;;1.20;;
8592;SDS011;4334;49.982;8.398;2023-05-10T03:48:18;1.20;;;1.10;;
8592;SDS011;4334;49.982;8.398;2023-05-10T03:50:45;1.17;;;1.07;;
8592;SDS011;4334;49.982;8.398;2023-05-10T03:53:14;1.27;;;1.17;;
8592;SDS011;4334;49.982;8.398;2023-05-10T03:55:41;0.93;;;0.87;;
8592;SDS011;4334;49.982;8.398;2023-05-10T03:58:10;2.43;;;1.43;;
8592;SDS011;4334;49.982;8.398;2023-05-10T04:00:37;2.10;;;1.17;;
8592;SDS011;4334;49.982;8.398;2023-05-10T04:03:10;3.37;;;1.63;;
8592;SDS011;4334;49.982;8.398;2023-05-10T04:05:36;8.77;;;2.90;;
8592;SDS011;4334;49.982;8.398;2023-05-10T04:08:04;5.63;;;2.30;;
8592;SDS011;4334;49.982;8.398;2023-05-10T04:10:31;9.33;;;2.03;;
8592;SDS011;4334;49.982;8.398;2023-05-10T04:12:58;7.77;;;2.00;;
8592;SDS011;4334;49.982;8.398;2023-05-10T04:15:25;6.13;;;2.00;;
8592;SDS011;4334;49.982;8.398;2023-05-10T04:17:52;2.47;;;1.27;;
8592;SDS011;4334;49.982;8.398;2023-05-10T04:20:20;1.53;;;1.30;;
8592;SDS011;4334;49.982;8.398;2023-05-10T04:22:47;4.27;;;1.40;;
8592;SDS011;4334;49.982;8.398;2023-05-10T04:25:14;3.70;;;1.57;;
8592;SDS011;4334;49.982;8.398;2023-05-10T04:27:42;2.47;;;1.47;;
8592;SDS011;4334;49.982;8.398;2023-05-10T04:30:09;1.30;;;1.20;;
8592;SDS011;4334;49.982;8.398;2023-05-10T04:32:36;5.20;;;1.20;;
8592;SDS011;4334;49.982;8.398;2023-05-10T04:35:03;2.10;;;1.33;;
8592;SDS011;4334;49.982;8.398;2023-05-10T04:37:32;1.27;;;1.17;;
8592;SDS011;4334;49.982;8.398;2023-05-10T04:39:59;1.23;;;1.00;;
8592;SDS011;4334;49.982;8.398;2023-05-10T04:42:28;0.93;;;0.93;;
8592;SDS011;4334;49.982;8.398;2023-05-10T04:44:55;1.20;;;1.10;;
8592;SDS011;4334;49.982;8.398;2023-05-10T04:47:22;1.00;;;1.00;;
8592;SDS011;4334;49.982;8.398;2023-05-10T04:49:49;2.17;;;1.60;;
8592;SDS011;4334;49.982;8.398;2023-05-10T04:52:16;4.27;;;1.63;;
8592;SDS011;4334;49.982;8.398;2023-05-10T04:54:44;1.93;;;1.40;;
8592;SDS011;4334;49.982;8.398;2023-05-10T04:57:11;1.10;;;1.03;;
8592;SDS011;4334;49.982;8.398;2023-05-10T04:59:38;1.20;;;1.10;;
8592;SDS011;4334;49.982;8.398;2023-05-10T05:02:05;1.50;;;1.40;;
8592;SDS011;4334;49.982;8.398;2023-05-10T05:04:32;1.33;;;1.23;;
8592;SDS011;4334;49.982;8.398;2023-05-10T05:06:59;1.00;;;1.00;;
8592;SDS011;4334;49.982;8.398;2023-05-10T05:09:25;1.93;;;1.33;;
8592;SDS011;4334;49.982;8.398;2023-05-10T05:11:54;1.70;;;1.60;;
8592;SDS011;4334;49.982;8.398;2023-05-10T05:14:20;1.63;;;1.40;;
8592;SDS011;4334;49.982;8.398;2023-05-10T05:16:47;1.90;;;1.70;;
8592;SDS011;4334;49.982;8.398;2023-05-10T05:19:14;2.17;;;1.53;;
8592;SDS011;4334;49.982;8.398;2023-05-10T05:21:41;2.17;;;1.53;;
8592;SDS011;4334;49.982;8.398;2023-05-10T05:24:08;1.77;;;1.43;;
8592;SDS011;4334;49.982;8.398;2023-05-10T05:26:36;2.33;;;1.70;;
8592;SDS011;4334;49.982;8.398;2023-05-10T05:29:04;4.23;;;1.90;;
8592;SDS011;4334;49.982;8.398;2023-05-10T05:31:30;2.30;;;1.80;;
8592;SDS011;4334;49.982;8.398;2023-05-10T05:33:57;5.27;;;2.40;;
8592;SDS011;4334;49.982;8.398;2023-05-10T05:36:24;3.43;;;1.77;;
8592;SDS011;4334;49.982;8.398;2023-05-10T05:38:51;4.27;;;2.10;;
8592;SDS011;4334;49.982;8.398;2023-05-10T05:41:17;5.17;;;1.97;;
8592;SDS011;4334;49.982;8.398;2023-05-10T05:43:44;4.83;;;2.67;;
8592;SDS011;4334;49.982;8.398;2023-05-10T05:46:13;17.90;;;2.00;;
8592;SDS011;4334;49.982;8.398;2023-05-10T05:48:39;2.40;;;2.00;;
8592;SDS011;4334;49.982;8.398;2023-05-10T05:51:06;5.40;;;2.43;;
8592;SDS011;4334;49.982;8.398;2023-05-10T05:53:33;6.13;;;2.30;;
8592;SDS011;4334;49.982;8.398;2023-05-10T05:55:59;1.60;;;1.50;;
8592;SDS011;4334;49.982;8.398;2023-05-10T05:58:26;8.37;;;1.97;;
8592;SDS011;4334;49.982;8.398;2023-05-10T06:00:53;2.80;;;2.13;;
8592;SDS011;4334;49.982;8.398;2023-05-10T06:03:21;2.50;;;1.60;;
8592;SDS011;4334;49.982;8.398;2023-05-10T06:05:48;3.40;;;1.53;;
8592;SDS011;4334;49.982;8.398;2023-05-10T06:08:14;2.00;;;1.80;;
8592;SDS011;4334;49.982;8.398;2023-05-10T06:10:41;7.23;;;2.13;;
8592;SDS011;4334;49.982;8.398;2023-05-10T06:13:08;3.00;;;2.03;;
8592;SDS011;4334;49.982;8.398;2023-05-10T06:15:35;2.07;;;1.60;;
8592;SDS011;4334;49.982;8.398;2023-05-10T06:18:01;2.10;;;1.80;;
8592;SDS011;4334;49.982;8.398;2023-05-10T06:20:29;1.40;;;1.20;;
8592;SDS011;4334;49.982;8.398;2023-05-10T06:22:57;2.17;;;1.50;;
8592;SDS011;4334;49.982;8.398;2023-05-10T06:25:24;2.13;;;1.70;;
8592;SDS011;4334;49.982;8.398;2023-05-10T06:27:51;1.77;;;1.63;;
8592;SDS011;4334;49.982;8.398;2023-05-10T06:30:22;1.53;;;1.43;;
8592;SDS011;4334;49.982;8.398;2023-05-10T06:32:52;9.17;;;1.73;;
8592;SDS011;4334;49.982;8.398;2023-05-10T06:35:20;2.40;;;1.63;;
8592;SDS011;4334;49.982;8.398;2023-05-10T06:37:48;3.03;;;1.60;;
8592;SDS011;4334;49.982;8.398;2023-05-10T06:40:14;2.00;;;1.70;;
8592;SDS011;4334;49.982;8.398;2023-05-10T06:42:41;1.60;;;1.47;;
8592;SDS011;4334;49.982;8.398;2023-05-10T06:45:10;1.70;;;1.47;;
8592;SDS011;4334;49.982;8.398;2023-05-10T06:47:36;2.97;;;1.70;;
8592;SDS011;4334;49.982;8.398;2023-05-10T06:50:03;3.60;;;1.60;;
8592;SDS011;4334;49.982;8.398;2023-05-10T06:52:31;3.50;;;1.43;;
8592;SDS011;4334;49.982;8.398;2023-05-10T06:54:59;3.57;;;1.53;;
8592;SDS011;4334;49.982;8.398;2023-05-10T06:57:26;3.67;;;1.40;;
8592;SDS011;4334;49.982;8.398;2023-05-10T06:59:53;2.00;;;1.43;;
8592;SDS011;4334;49.982;8.398;2023-05-10T07:02:21;1.13;;;1.03;;
8592;SDS011;4334;49.982;8.398;2023-05-10T07:04:48;1.30;;;1.20;;
8592;SDS011;4334;49.982;8.398;2023-05-10T07:07:15;1.53;;;1.37;;
8592;SDS011;4334;49.982;8.398;2023-05-10T07:09:45;2.37;;;1.33;;
8592;SDS011;4334;49.982;8.398;2023-05-10T07:12:14;3.80;;;1.53;;
8592;SDS011;4334;49.982;8.398;2023-05-10T07:14:41;1.80;;;1.40;;
8592;SDS011;4334;49.982;8.398;2023-05-10T07:17:08;4.30;;;1.63;;
8592;SDS011;4334;49.982;8.398;2023-05-10T07:19:35;2.90;;;1.30;;
8592;SDS011;4334;49.982;8.398;2023-05-10T07:22:02;2.13;;;1.30;;
8592;SDS011;4334;49.982;8.398;2023-05-10T07:24:28;1.43;;;1.33;;
8592;SDS011;4334;49.982;8.398;2023-05-10T07:26:56;1.90;;;1.50;;
8592;SDS011;4334;49.982;8.398;2023-05-10T07:29:24;3.33;;;1.37;;
8592;SDS011;4334;49.982;8.398;2023-05-10T07:31:51;5.27;;;1.40;;
8592;SDS011;4334;49.982;8.398;2023-05-10T07:34:18;2.60;;;1.33;;
8592;SDS011;4334;49.982;8.398;2023-05-10T07:36:44;1.77;;;1.20;;
8592;SDS011;4334;49.982;8.398;2023-05-10T07:39:11;2.53;;;1.67;;
8592;SDS011;4334;49.982;8.398;2023-05-10T07:41:38;3.07;;;1.63;;
8592;SDS011;4334;49.982;8.398;2023-05-10T07:44:04;4.83;;;1.40;;
8592;SDS011;4334;49.982;8.398;2023-05-10T07:46:33;2.77;;;1.73;;
8592;SDS011;4334;49.982;8.398;2023-05-10T07:48:59;2.07;;;1.63;;
8592;SDS011;4334;49.982;8.398;2023-05-10T07:51:26;3.13;;;1.83;;
8592;SDS011;4334;49.982;8.398;2023-05-10T07:53:53;1.77;;;1.03;;
8592;SDS011;4334;49.982;8.398;2023-05-10T07:56:21;7.60;;;1.40;;
8592;SDS011;4334;49.982;8.398;2023-05-10T07:58:50;1.40;;;1.30;;
8592;SDS011;4334;49.982;8.398;2023-05-10T08:01:17;3.67;;;1.30;;
8592;SDS011;4334;49.982;8.398;2023-05-10T08:03:45;2.30;;;1.30;;
8592;SDS011;4334;49.982;8.398;2023-05-10T08:06:12;7.80;;;2.10;;
8592;SDS011;4334;49.982;8.398;2023-05-10T08:08:39;2.73;;;0.93;;
8592;SDS011;4334;49.982;8.398;2023-05-10T08:11:05;1.50;;;1.40;;
8592;SDS011;4334;49.982;8.398;2023-05-10T08:13:32;1.77;;;1.10;;
8592;SDS011;4334;49.982;8.398;2023-05-10T08:15:59;2.20;;;1.70;;
8592;SDS011;4334;49.982;8.398;2023-05-10T08:18:26;1.47;;;1.20;;
8592;SDS011;4334;49.982;8.398;2023-05-10T08:20:54;6.23;;;2.03;;
8592;SDS011;4334;49.982;8.398;2023-05-10T08:23:21;3.93;;;1.47;;
8592;SDS011;4334;49.982;8.398;2023-05-10T08:25:48;4.07;;;1.93;;
8592;SDS011;4334;49.982;8.398;2023-05-10T08:28:14;4.13;;;1.90;;
8592;SDS011;4334;49.982;8.398;2023-05-10T08:30:41;5.17;;;1.90;;
8592;SDS011;4334;49.982;8.398;2023-05-10T08:33:08;1.50;;;1.07;;
8592;SDS011;4334;49.982;8.398;2023-05-10T08:35:34;6.57;;;1.83;;
8592;SDS011;4334;49.982;8.398;2023-05-10T08:38:03;5.00;;;2.73;;
8592;SDS011;4334;49.982;8.398;2023-05-10T08:40:30;4.57;;;2.30;;
8592;SDS011;4334;49.982;8.398;2023-05-10T08:42:58;3.80;;;2.33;;
8592;SDS011;4334;49.982;8.398;2023-05-10T08:45:32;3.10;;;1.80;;
8592;SDS011;4334;49.982;8.398;2023-05-10T08:47:59;2.73;;;1.70;;
8592;SDS011;4334;49.982;8.398;2023-05-10T08:50:27;3.47;;;2.07;;
8592;SDS011;4334;49.982;8.398;2023-05-10T08:52:57;4.87;;;1.40;;
8592;SDS011;4334;49.982;8.398;2023-05-10T08:55:27;4.70;;;2.20;;
8592;SDS011;4334;49.982;8.398;2023-05-10T08:57:54;4.03;;;2.27;;
8592;SDS011;4334;49.982;8.398;2023-05-10T09:00:21;1.92;;;1.63;;
8592;SDS011;4334;49.982;8.398;2023-05-10T09:02:49;4.63;;;2.60;;
8592;SDS011;4334;49.982;8.398;2023-05-10T09:05:16;9.07;;;2.78;;
8592;SDS011;4334;49.982;8.398;2023-05-10T09:07:42;2.20;;;1.50;;
8592;SDS011;4334;49.982;8.398;2023-05-10T09:10:09;1.27;;;0.90;;
8592;SDS011;4334;49.982;8.398;2023-05-10T09:12:38;0.97;;;0.90;;
8592;SDS011;4334;49.982;8.398;2023-05-10T09:15:05;3.43;;;1.30;;
8592;SDS011;4334;49.982;8.398;2023-05-10T09:17:35;3.00;;;0.87;;
8592;SDS011;4334;49.982;8.398;2023-05-10T09:20:03;1.57;;;1.00;;
8592;SDS011;4334;49.982;8.398;2023-05-10T09:22:31;1.30;;;1.00;;
8592;SDS011;4334;49.982;8.398;2023-05-10T09:25:05;3.17;;;1.37;;
8592;SDS011;4334;49.982;8.398;2023-05-10T09:27:33;1.47;;;1.10;;
8592;SDS011;4334;49.982;8.398;2023-05-10T09:30:01;3.07;;;1.10;;
8592;SDS011;4334;49.982;8.398;2023-05-10T09:32:37;1.57;;;1.20;;
8592;SDS011;4334;49.982;8.398;2023-05-10T09:35:08;1.17;;;1.07;;
8592;SDS011;4334;49.982;8.398;2023-05-10T09:37:35;2.50;;;1.10;;
8592;SDS011;4334;49.982;8.398;2023-05-10T09:40:06;2.27;;;1.40;;
8592;SDS011;4334;49.982;8.398;2023-05-10T09:42:33;3.37;;;1.33;;
8592;SDS011;4334;49.982;8.398;2023-05-10T09:45:03;1.83;;;1.47;;
8592;SDS011;4334;49.982;8.398;2023-05-10T09:47:32;1.30;;;1.20;;
8592;SDS011;4334;49.982;8.398;2023-05-10T09:49:59;1.53;;;1.30;;
8592;SDS011;4334;49.982;8.398;2023-05-10T09:52:29;2.10;;;1.23;;
8592;SDS011;4334;49.982;8.398;2023-05-10T09:54:57;1.33;;;1.20;;
8592;SDS011;4334;49.982;8.398;2023-05-10T09:57:24;1.30;;;1.10;;
8592;SDS011;4334;49.982;8.398;2023-05-10T09:59:51;1.43;;;1.20;;
8592;SDS011;4334;49.982;8.398;2023-05-10T10:02:20;1.20;;;1.03;;
8592;SDS011;4334;49.982;8.398;2023-05-10T10:04:54;2.63;;;0.97;;
8592;SDS011;4334;49.982;8.398;2023-05-10T10:07:22;1.90;;;1.20;;
8592;SDS011;4334;49.982;8.398;2023-05-10T10:09:50;1.17;;;1.07;;
8592;SDS011;4334;49.982;8.398;2023-05-10T10:12:17;0.90;;;0.87;;
8592;SDS011;4334;49.982;8.398;2023-05-10T10:14:45;0.73;;;0.73;;
8592;SDS011;4334;49.982;8.398;2023-05-10T10:17:13;0.80;;;0.80;;
8592;SDS011;4334;49.982;8.398;2023-05-10T10:19:41;0.90;;;0.90;;
8592;SDS011;4334;49.982;8.398;2023-05-10T10:22:09;1.43;;;1.00;;
8592;SDS011;4334;49.982;8.398;2023-05-10T10:24:37;1.70;;;0.70;;
8592;SDS011;4334;49.982;8.398;2023-05-10T10:27:09;1.70;;;0.98;;
8592;SDS011;4334;49.982;8.398;2023-05-10T10:29:47;2.88;;;0.80;;
8592;SDS011;4334;49.982;8.398;2023-05-10T10:32:22;1.33;;;0.50;;
8592;SDS011;4334;49.982;8.398;2023-05-10T10:34:55;0.90;;;0.90;;
8592;SDS011;4334;49.982;8.398;2023-05-10T10:37:22;2.40;;;1.17;;
8592;SDS011;4334;49.982;8.398;2023-05-10T10:39:49;1.05;;;0.85;;
8592;SDS011;4334;49.982;8.398;2023-05-10T10:45:14;0.75;;;0.75;;
8592;SDS011;4334;49.982;8.398;2023-05-10T10:47:41;0.47;;;0.47;;
8592;SDS011;4334;49.982;8.398;2023-05-10T10:50:10;0.98;;;0.90;;
8592;SDS011;4334;49.982;8.398;2023-05-10T10:52:38;1.10;;;0.80;;
8592;SDS011;4334;49.982;8.398;2023-05-10T10:55:06;1.25;;;1.15;;
8592;SDS011;4334;49.982;8.398;2023-05-10T10:57:42;0.88;;;0.73;;
8592;SDS011;4334;49.982;8.398;2023-05-10T11:00:21;0.95;;;0.90;;
8592;SDS011;4334;49.982;8.398;2023-05-10T11:02:52;2.92;;;0.75;;
8592;SDS011;4334;49.982;8.398;2023-05-10T11:05:33;0.70;;;0.70;;
8592;SDS011;4334;49.982;8.398;2023-05-10T11:08:07;0.70;;;0.70;;
8592;SDS011;4334;49.982;8.398;2023-05-10T11:10:52;0.80;;;0.80;;
8592;SDS011;4334;49.982;8.398;2023-05-10T11:13:28;0.52;;;0.52;;
8592;SDS011;4334;49.982;8.398;2023-05-10T11:15:57;2.10;;;0.90;;
8592;SDS011;4334;49.982;8.398;2023-05-10T11:18:25;0.52;;;0.52;;
8592;SDS011;4334;49.982;8.398;2023-05-10T11:20:55;2.63;;;0.80;;
8592;SDS011;4334;49.982;8.398;2023-05-10T11:23:24;4.22;;;0.90;;
8592;SDS011;4334;49.982;8.398;2023-05-10T11:25:56;18.40;;;0.90;;
8592;SDS011;4334;49.982;8.398;2023-05-10T11:28:23;0.70;;;0.70;;
8592;SDS011;4334;49.982;8.398;2023-05-10T11:30:49;0.88;;;0.70;;
8592;SDS011;4334;49.982;8.398;2023-05-10T11:33:17;0.70;;;0.70;;
8592;SDS011;4334;49.982;8.398;2023-05-10T11:35:45;0.80;;;0.80;;
8592;SDS011;4334;49.982;8.398;2023-05-10T11:38:14;0.95;;;0.88;;
8592;SDS011;4334;49.982;8.398;2023-05-10T11:40:41;0.60;;;0.60;;
8592;SDS011;4334;49.982;8.398;2023-05-10T11:43:08;2.90;;;0.95;;
8592;SDS011;4334;49.982;8.398;2023-05-10T11:45:36;0.52;;;0.52;;
8592;SDS011;4334;49.982;8.398;2023-05-10T11:48:03;1.15;;;0.60;;
8592;SDS011;4334;49.982;8.398;2023-05-10T11:50:30;0.80;;;0.80;;
8592;SDS011;4334;49.982;8.398;2023-05-10T11:52:57;0.52;;;0.50;;
8592;SDS011;4334;49.982;8.398;2023-05-10T11:55:26;1.42;;;1.20;;
8592;SDS011;4334;49.982;8.398;2023-05-10T11:57:55;1.73;;;1.10;;
8592;SDS011;4334;49.982;8.398;2023-05-10T12:00:26;3.92;;;1.58;;
8592;SDS011;4334;49.982;8.398;2023-05-10T12:02:52;1.05;;;0.50;;
8592;SDS011;4334;49.982;8.398;2023-05-10T12:05:19;3.28;;;0.95;;
8592;SDS011;4334;49.982;8.398;2023-05-10T12:07:46;0.60;;;0.60;;
8592;SDS011;4334;49.982;8.398;2023-05-10T12:10:13;8.30;;;0.98;;
8592;SDS011;4334;49.982;8.398;2023-05-10T12:12:43;0.90;;;0.85;;
8592;SDS011;4334;49.982;8.398;2023-05-10T12:15:11;0.52;;;0.50;;
8592;SDS011;4334;49.982;8.398;2023-05-10T12:17:38;1.98;;;1.00;;
8592;SDS011;4334;49.982;8.398;2023-05-10T12:20:16;0.50;;;0.50;;
8592;SDS011;4334;49.982;8.398;2023-05-10T12:22:44;0.70;;;0.70;;
8592;SDS011;4334;49.982;8.398;2023-05-10T12:25:11;0.57;;;0.57;;
8592;SDS011;4334;49.982;8.398;2023-05-10T12:27:38;0.80;;;0.80;;
8592;SDS011;4334;49.982;8.398;2023-05-10T12:30:07;1.88;;;1.33;;
8592;SDS011;4334;49.982;8.398;2023-05-10T12:32:37;8.32;;;3.58;;
8592;SDS011;4334;49.982;8.398;2023-05-10T12:35:05;0.85;;;0.82;;
8592;SDS011;4334;49.982;8.398;2023-05-10T12:37:32;1.83;;;1.00;;
8592;SDS011;4334;49.982;8.398;2023-05-10T12:40:01;0.82;;;0.77;;
8592;SDS011;4334;49.982;8.398;2023-05-10T12:42:30;4.30;;;0.88;;
8592;SDS011;4334;49.982;8.398;2023-05-10T12:44:57;0.95;;;0.90;;
8592;SDS011;4334;49.982;8.398;2023-05-10T12:47:25;6.13;;;1.70;;
8592;SDS011;4334;49.982;8.398;2023-05-10T12:49:52;2.30;;;1.67;;
8592;SDS011;4334;49.982;8.398;2023-05-10T12:52:19;8.63;;;1.20;;
8592;SDS011;4334;49.982;8.398;2023-05-10T12:54:45;0.55;;;0.55;;
8592;SDS011;4334;49.982;8.398;2023-05-10T12:57:12;0.68;;;0.68;;
8592;SDS011;4334;49.982;8.398;2023-05-10T12:59:39;1.38;;;0.85;;
8592;SDS011;4334;49.982;8.398;2023-05-10T13:02:06;1.17;;;1.08;;
8592;SDS011;4334;49.982;8.398;2023-05-10T13:04:36;0.63;;;0.63;;
8592;SDS011;4334;49.982;8.398;2023-05-10T13:07:04;1.27;;;0.60;;
8592;SDS011;4334;49.982;8.398;2023-05-10T13:09:31;5.95;;;0.93;;
8592;SDS011;4334;49.982;8.398;2023-05-10T13:11:58;1.02;;;0.80;;
8592;SDS011;4334;49.982;8.398;2023-05-10T13:14:25;1.23;;;0.90;;
8592;SDS011;4334;49.982;8.398;2023-05-10T13:16:52;0.75;;;0.75;;
8592;SDS011;4334;49.982;8.398;2023-05-10T13:19:19;5.47;;;1.05;;
8592;SDS011;4334;49.982;8.398;2023-05-10T13:21:47;7.95;;;1.02;;
8592;SDS011;4334;49.982;8.398;2023-05-10T13:24:14;1.63;;;0.75;;
8592;SDS011;4334;49.982;8.398;2023-05-10T13:26:42;1.30;;;0.93;;
8592;SDS011;4334;49.982;8.398;2023-05-10T13:29:09;3.92;;;0.80;;
8592;SDS011;4334;49.982;8.398;2023-05-10T13:31:35;4.25;;;0.90;;
8592;SDS011;4334;49.982;8.398;2023-05-10T13:34:03;1.02;;;0.90;;
8592;SDS011;4334;49.982;8.398;2023-05-10T13:36:31;0.85;;;0.85;;
8592;SDS011;4334;49.982;8.398;2023-05-10T13:38:59;1.58;;;0.70;;
8592;SDS011;4334;49.982;8.398;2023-05-10T13:41:28;1.92;;;1.00;;
8592;SDS011;4334;49.982;8.398;2023-05-10T13:43:55;1.13;;;0.98;;
8592;SDS011;4334;49.982;8.398;2023-05-10T13:46:21;2.55;;;1.10;;
8592;SDS011;4334;49.982;8.398;2023-05-10T13:48:48;1.35;;;0.73;;
8592;SDS011;4334;49.982;8.398;2023-05-10T13:51:14;1.13;;;0.90;;
8592;SDS011;4334;49.982;8.398;2023-05-10T13:53:41;1.10;;;0.88;;
8592;SDS011;4334;49.982;8.398;2023-05-10T13:56:09;4.55;;;0.88;;
8592;SDS011;4334;49.982;8.398;2023-05-10T13:58:36;0.70;;;0.70;;
8592;SDS011;4334;49.982;8.398;2023-05-10T14:01:03;0.77;;;0.77;;
8592;SDS011;4334;49.982;8.398;2023-05-10T14:03:29;1.23;;;0.80;;
8592;SDS011;4334;49.982;8.398;2023-05-10T14:05:57;1.05;;;0.90;;
8592;SDS011;4334;49.982;8.398;2023-05-10T14:08:24;0.80;;;0.80;;
8592;SDS011;4334;49.982;8.398;2023-05-10T14:10:52;0.90;;;0.90;;
8592;SDS011;4334;49.982;8.398;2023-05-10T14:13:20;1.92;;;0.85;;
8592;SDS011;4334;49.982;8.398;2023-05-10T14:15:46;2.17;;;0.90;;
8592;SDS011;4334;49.982;8.398;2023-05-10T14:18:13;1.02;;;0.93;;
8592;SDS011;4334;49.982;8.398;2023-05-10T14:20:40;1.48;;;1.02;;
8592;SDS011;4334;49.982;8.398;2023-05-10T14:23:07;4.03;;;0.80;;
8592;SDS011;4334;49.982;8.398;2023-05-10T14:25:33;1.42;;;0.93;;
8592;SDS011;4334;49.982;8.398;2023-05-10T14:28:01;1.50;;;0.70;;
8592;SDS011;4334;49.982;8.398;2023-05-10T14:30:29;0.88;;;0.88;;
8592;SDS011;4334;49.982;8.398;2023-05-10T14:32:56;1.50;;;1.10;;
8592;SDS011;4334;49.982;8.398;2023-05-10T14:35:23;0.80;;;0.80;;
8592;SDS011;4334;49.982;8.398;2023-05-10T14:37:50;0.95;;;0.85;;
8592;SDS011;4334;49.982;8.398;2023-05-10T14:40:16;1.77;;;1.35;;
8592;SDS011;4334;49.982;8.398;2023-05-10T14:42:43;1.90;;;1.05;;
8592;SDS011;4334;49.982;8.398;2023-05-10T14:45:10;0.88;;;0.82;;
8592;SDS011;4334;49.982;8.398;2023-05-10T14:47:38;8.90;;;1.55;;
8592;SDS011;4334;49.982;8.398;2023-05-10T14:50:06;1.17;;;0.93;;
8592;SDS011;4334;49.982;8.398;2023-05-10T14:52:33;0.75;;;0.75;;
8592;SDS011;4334;49.982;8.398;2023-05-10T14:55:00;2.22;;;0.98;;
8592;SDS011;4334;49.982;8.398;2023-05-10T14:57:27;0.90;;;0.90;;
8592;SDS011;4334;49.982;8.398;2023-05-10T14:59:54;0.68;;;0.63;;
8592;SDS011;4334;49.982;8.398;2023-05-10T15:02:21;2.38;;;1.25;;
8592;SDS011;4334;49.982;8.398;2023-05-10T15:04:49;1.80;;;0.85;;
8592;SDS011;4334;49.982;8.398;2023-05-10T15:07:16;2.80;;;1.30;;
8592;SDS011;4334;49.982;8.398;2023-05-10T15:09:43;2.60;;;1.50;;
8592;SDS011;4334;49.982;8.398;2023-05-10T15:12:10;5.53;;;2.47;;
8592;SDS011;4334;49.982;8.398;2023-05-10T15:14:36;13.35;;;3.58;;
8592;SDS011;4334;49.982;8.398;2023-05-10T15:17:05;0.90;;;0.90;;
8592;SDS011;4334;49.982;8.398;2023-05-10T15:19:35;2.95;;;0.98;;
8592;SDS011;4334;49.982;8.398;2023-05-10T15:22:04;1.30;;;0.70;;
8592;SDS011;4334;49.982;8.398;2023-05-10T15:24:31;1.58;;;0.85;;
8592;SDS011;4334;49.982;8.398;2023-05-10T15:26:57;1.17;;;0.95;;